Time;durP1;ratioP1;P1;durP2;ratioP2;P2;SDS_P1;SDS_P2;PMS_P1;PMS_P2;Temp;Humidity;BMP_temperature;BMP_pressure;BME280_temperature;BME280_humidity;BME280_pressure;Samples;Min_cycle;Max_cycle;Signal;HPM_P1;HPM_P2
2023/04/18 00:01:08;;;;;;;36.50;17.10;;;;;;;;;;5060781;28;20420;-80
2023/04/18 00:03:35;;;;;;;42.97;17.90;;;;;;;;;;5061576;28;20111;-81
2023/04/18 00:06:01;;;;;;;35.17;16.55;;;;;;;;;;5077179;28;20032;-82
2023/04/18 00:08:27;;;;;;;42.33;17.20;;;;;;;;;;5077302;28;20463;-82
2023/04/18 00:10:52;;;;;;;35.00;16.60;;;;;;;;;;5060663;28;20360;-82
2023/04/18 00:13:18;;;;;;;32.63;15.38;;;;;;;;;;5060718;28;20028;-82
2023/04/18 00:15:45;;;;;;;26.30;12.90;;;;;;;;;;5077439;28;20059;-84
2023/04/18 00:18:11;;;;;;;33.33;14.63;;;;;;;;;;5077157;28;20050;-82
2023/04/18 00:20:37;;;;;;;29.73;13.48;;;;;;;;;;5076524;28;20031;-82
2023/04/18 00:23:05;;;;;;;30.48;13.98;;;;;;;;;;5060959;28;20410;-82
2023/04/18 00:25:30;;;;;;;35.17;14.93;;;;;;;;;;5044412;28;20475;-82
2023/04/18 00:27:55;;;;;;;34.22;13.50;;;;;;;;;;5043950;28;20029;-82
2023/04/18 00:30:21;;;;;;;42.22;17.25;;;;;;;;;;5059990;28;20382;-82
2023/04/18 00:32:46;;;;;;;30.75;14.52;;;;;;;;;;5060435;28;20028;-82
2023/04/18 00:35:12;;;;;;;40.65;19.05;;;;;;;;;;5060194;28;20067;-82
2023/04/18 00:37:37;;;;;;;44.28;19.33;;;;;;;;;;5076747;28;20115;-81
2023/04/18 00:40:04;;;;;;;48.10;18.60;;;;;;;;;;5076898;28;20119;-82
2023/04/18 00:42:29;;;;;;;41.03;17.17;;;;;;;;;;5043796;28;20028;-82
2023/04/18 00:44:55;;;;;;;51.00;19.77;;;;;;;;;;5039810;28;20035;-81
2023/04/18 00:47:20;;;;;;;50.60;19.77;;;;;;;;;;5056869;28;20502;-81
2023/04/18 00:49:46;;;;;;;53.47;19.92;;;;;;;;;;5056505;28;20431;-80
2023/04/18 00:52:12;;;;;;;51.60;21.40;;;;;;;;;;5023611;28;20028;-82
2023/04/18 00:54:38;;;;;;;49.85;20.30;;;;;;;;;;5056470;28;20103;-82
2023/04/18 00:57:04;;;;;;;67.00;22.40;;;;;;;;;;5039876;28;20024;-81
2023/04/18 00:59:29;;;;;;;54.00;23.13;;;;;;;;;;5056077;28;20024;-82
2023/04/18 01:01:55;;;;;;;50.20;22.00;;;;;;;;;;5039602;28;20458;-81
2023/04/18 01:04:21;;;;;;;51.72;21.27;;;;;;;;;;5023199;28;20074;-80
2023/04/18 01:06:46;;;;;;;57.17;22.63;;;;;;;;;;5039405;28;20059;-80
2023/04/18 01:09:12;;;;;;;53.10;21.20;;;;;;;;;;5074175;28;20060;-81
2023/04/18 01:11:38;;;;;;;45.63;20.13;;;;;;;;;;5056295;28;20085;-81
2023/04/18 01:14:05;;;;;;;51.58;20.90;;;;;;;;;;5022894;28;20024;-81
2023/04/18 01:16:33;;;;;;;58.65;22.42;;;;;;;;;;5039586;28;20027;-82
2023/04/18 01:19:02;;;;;;;55.05;22.35;;;;;;;;;;5023952;28;20059;-82
2023/04/18 01:21:32;;;;;;;72.50;22.95;;;;;;;;;;5056299;28;20032;-82
2023/04/18 01:24:08;;;;;;;56.17;22.92;;;;;;;;;;5056749;28;20024;-82
2023/04/18 01:26:34;;;;;;;58.00;23.08;;;;;;;;;;5039864;28;20040;-82
2023/04/18 01:29:00;;;;;;;64.03;22.92;;;;;;;;;;5055985;28;20445;-82
2023/04/18 01:31:25;;;;;;;65.60;25.73;;;;;;;;;;5055992;28;20043;-81
2023/04/18 01:33:50;;;;;;;62.65;25.73;;;;;;;;;;5023003;28;20423;-82
2023/04/18 01:36:16;;;;;;;69.10;25.33;;;;;;;;;;5055987;28;20021;-81
2023/04/18 01:38:41;;;;;;;68.45;24.52;;;;;;;;;;5055848;28;20452;-82
2023/04/18 01:41:07;;;;;;;68.60;25.60;;;;;;;;;;5039157;28;20036;-81
2023/04/18 01:43:32;;;;;;;59.60;25.08;;;;;;;;;;5073440;28;20035;-81
2023/04/18 01:45:58;;;;;;;60.17;24.27;;;;;;;;;;5051838;28;20425;-81
2023/04/18 01:48:23;;;;;;;61.05;26.50;;;;;;;;;;5039180;28;20432;-82
2023/04/18 01:50:48;;;;;;;63.80;26.38;;;;;;;;;;5073563;28;20345;-81
2023/04/18 01:53:14;;;;;;;63.60;26.23;;;;;;;;;;5073720;28;20361;-81
2023/04/18 01:55:39;;;;;;;56.03;23.55;;;;;;;;;;5073740;28;20436;-81
2023/04/18 01:58:05;;;;;;;59.60;24.77;;;;;;;;;;5055364;28;20361;-81
2023/04/18 02:00:30;;;;;;;64.18;25.70;;;;;;;;;;5055507;28;20511;-81
2023/04/18 02:02:57;;;;;;;61.65;25.67;;;;;;;;;;5039073;28;20027;-81
2023/04/18 02:05:23;;;;;;;56.78;26.02;;;;;;;;;;5055707;28;20461;-81
2023/04/18 02:07:49;;;;;;;59.70;25.65;;;;;;;;;;5039038;28;20045;-82
2023/04/18 02:10:14;;;;;;;56.60;24.90;;;;;;;;;;5039237;28;20032;-82
2023/04/18 02:12:39;;;;;;;56.88;25.60;;;;;;;;;;5038695;28;20028;-80
2023/04/18 02:15:05;;;;;;;55.88;24.65;;;;;;;;;;5055249;28;20163;-79
2023/04/18 02:17:32;;;;;;;56.08;23.35;;;;;;;;;;5055741;28;20029;-80
2023/04/18 02:19:57;;;;;;;39.30;18.13;;;;;;;;;;5073346;28;20025;-80
2023/04/18 02:22:23;;;;;;;49.58;19.95;;;;;;;;;;5038964;28;20047;-79
2023/04/18 02:24:48;;;;;;;50.25;22.40;;;;;;;;;;5022645;28;20067;-80
2023/04/18 02:27:14;;;;;;;57.85;23.85;;;;;;;;;;5022091;28;20041;-79
2023/04/18 02:29:39;;;;;;;55.85;20.75;;;;;;;;;;5038649;28;20083;-81
2023/04/18 02:32:05;;;;;;;55.15;21.65;;;;;;;;;;5038764;28;20123;-79
2023/04/18 02:34:32;;;;;;;55.63;23.55;;;;;;;;;;5038638;28;20032;-80
2023/04/18 02:36:58;;;;;;;58.95;24.52;;;;;;;;;;5055673;28;20427;-80
2023/04/18 02:39:23;;;;;;;65.40;25.60;;;;;;;;;;5022607;28;20025;-81
2023/04/18 02:41:48;;;;;;;61.60;23.52;;;;;;;;;;5038323;28;20025;-79
2023/04/18 02:44:14;;;;;;;65.90;25.45;;;;;;;;;;5040372;28;20056;-81
2023/04/18 02:46:39;;;;;;;62.40;24.45;;;;;;;;;;5041285;28;20417;-81
2023/04/18 02:49:06;;;;;;;56.50;23.40;;;;;;;;;;5034013;28;20458;-79
2023/04/18 02:51:31;;;;;;;69.15;26.80;;;;;;;;;;5056447;28;20460;-81
2023/04/18 02:53:57;;;;;;;67.07;25.65;;;;;;;;;;5056394;28;20025;-81
2023/04/18 02:56:22;;;;;;;66.97;26.33;;;;;;;;;;5056045;28;20500;-79
2023/04/18 02:58:48;;;;;;;62.28;25.73;;;;;;;;;;5054954;28;20035;-80
2023/04/18 03:01:14;;;;;;;58.90;23.45;;;;;;;;;;5038219;28;20090;-80
2023/04/18 03:03:39;;;;;;;65.47;26.30;;;;;;;;;;5038423;28;20029;-81
2023/04/18 03:06:05;;;;;;;63.65;26.00;;;;;;;;;;5038101;28;20472;-81
2023/04/18 03:08:30;;;;;;;73.32;30.08;;;;;;;;;;5021915;28;20056;-81
2023/04/18 03:10:56;;;;;;;65.00;27.95;;;;;;;;;;5055906;28;20037;-80
2023/04/18 03:13:21;;;;;;;72.68;30.70;;;;;;;;;;5038324;28;20033;-81
2023/04/18 03:15:46;;;;;;;66.82;26.98;;;;;;;;;;5038316;28;20033;-80
2023/04/18 03:18:12;;;;;;;63.05;27.23;;;;;;;;;;5038286;28;20673;-80
2023/04/18 03:20:38;;;;;;;66.60;29.02;;;;;;;;;;5021849;28;20033;-81
2023/04/18 03:23:04;;;;;;;61.67;27.65;;;;;;;;;;5056339;28;20025;-79
2023/04/18 03:25:30;;;;;;;68.40;29.75;;;;;;;;;;5037816;28;20334;-80
2023/04/18 03:27:55;;;;;;;75.88;31.13;;;;;;;;;;5021668;28;20025;-81
2023/04/18 03:30:21;;;;;;;64.03;28.23;;;;;;;;;;5055709;28;20029;-80
2023/04/18 03:32:47;;;;;;;68.00;29.25;;;;;;;;;;5021610;28;20048;-80
2023/04/18 03:35:13;;;;;;;64.60;28.52;;;;;;;;;;5038093;28;20025;-81
2023/04/18 03:37:38;;;;;;;73.35;30.08;;;;;;;;;;5021468;28;20469;-79
2023/04/18 03:40:04;;;;;;;67.07;27.45;;;;;;;;;;5021340;28;20025;-80
2023/04/18 03:42:30;;;;;;;71.95;28.73;;;;;;;;;;5021061;28;20032;-80
2023/04/18 03:44:55;;;;;;;62.45;28.60;;;;;;;;;;5037853;28;20036;-81
2023/04/18 03:47:21;;;;;;;74.30;29.77;;;;;;;;;;5054219;28;20040;-81
2023/04/18 03:49:46;;;;;;;57.35;26.45;;;;;;;;;;5019885;28;20039;-82
2023/04/18 03:52:12;;;;;;;65.13;27.10;;;;;;;;;;5020939;28;20033;-81
2023/04/18 03:54:37;;;;;;;57.88;26.17;;;;;;;;;;5020284;28;20033;-81
2023/04/18 03:57:02;;;;;;;60.53;26.00;;;;;;;;;;5020557;28;20036;-81
2023/04/18 03:59:28;;;;;;;57.78;25.95;;;;;;;;;;5037574;28;20499;-79
2023/04/18 04:01:54;;;;;;;62.63;26.05;;;;;;;;;;5020886;28;20025;-80
2023/04/18 04:04:20;;;;;;;60.88;25.65;;;;;;;;;;5037355;28;20031;-79
2023/04/18 04:06:45;;;;;;;64.88;26.30;;;;;;;;;;5036982;28;20044;-79
2023/04/18 04:09:11;;;;;;;62.88;26.98;;;;;;;;;;5020526;28;20091;-79
2023/04/18 04:11:36;;;;;;;63.78;27.65;;;;;;;;;;5055055;28;20079;-79
2023/04/18 04:14:01;;;;;;;62.60;28.08;;;;;;;;;;5055221;28;20445;-79
2023/04/18 04:16:27;;;;;;;62.78;27.08;;;;;;;;;;5020984;28;20534;-80
2023/04/18 04:18:52;;;;;;;59.80;28.00;;;;;;;;;;5036983;28;20020;-80
2023/04/18 04:21:18;;;;;;;70.22;30.15;;;;;;;;;;5021357;28;20106;-80
2023/04/18 04:23:45;;;;;;;70.53;31.45;;;;;;;;;;5020433;28;20362;-80
2023/04/18 04:26:15;;;;;;;68.38;28.02;;;;;;;;;;5021631;28;20055;-80
2023/04/18 04:28:42;;;;;;;62.67;28.13;;;;;;;;;;5042321;28;20365;-80
2023/04/18 04:31:09;;;;;;;65.45;30.38;;;;;;;;;;5074708;28;20174;-80
2023/04/18 04:33:37;;;;;;;67.60;30.67;;;;;;;;;;5039363;28;20447;-79
2023/04/18 04:36:06;;;;;;;73.90;31.27;;;;;;;;;;5056818;28;20033;-79
2023/04/18 04:38:32;;;;;;;68.78;29.98;;;;;;;;;;5053497;28;20029;-79
2023/04/18 04:41:15;;;;;;;88.30;31.70;;;;;;;;;;5055140;28;20029;-79
2023/04/18 04:43:41;;;;;;;90.25;33.00;;;;;;;;;;5032732;28;20559;-79
2023/04/18 04:46:07;;;;;;;92.78;33.42;;;;;;;;;;5028695;28;20028;-80
2023/04/18 04:48:32;;;;;;;75.97;31.45;;;;;;;;;;5041963;28;20055;-79
2023/04/18 04:51:16;;;;;;;95.82;34.65;;;;;;;;;;5066897;28;20127;-79
2023/04/18 04:53:42;;;;;;;83.07;32.17;;;;;;;;;;5046145;28;20381;-78
2023/04/18 04:56:08;;;;;;;71.95;30.75;;;;;;;;;;5044833;28;20040;-78
2023/04/18 04:58:54;;;;;;;69.88;33.35;;;;;;;;;;5060254;28;20037;-80
2023/04/18 05:01:20;;;;;;;71.72;32.55;;;;;;;;;;5043397;28;20035;-80
2023/04/18 05:03:46;;;;;;;74.35;31.23;;;;;;;;;;5044759;28;20029;-79
2023/04/18 05:06:12;;;;;;;74.85;32.33;;;;;;;;;;5037725;28;20036;-78
2023/04/18 05:08:38;;;;;;;75.28;33.53;;;;;;;;;;5063759;28;20028;-80
2023/04/18 05:11:04;;;;;;;75.78;34.33;;;;;;;;;;5048754;28;20557;-79
2023/04/18 05:13:29;;;;;;;74.35;31.60;;;;;;;;;;5062272;28;20036;-78
2023/04/18 05:16:01;;;;;;;81.72;34.13;;;;;;;;;;5055964;28;20033;-78
2023/04/18 05:18:27;;;;;;;87.25;35.95;;;;;;;;;;5041470;28;20144;-79
2023/04/18 05:20:52;;;;;;;79.38;33.70;;;;;;;;;;5058845;28;20506;-81
2023/04/18 05:23:18;;;;;;;71.82;32.30;;;;;;;;;;5057377;28;20098;-79
2023/04/18 05:25:43;;;;;;;72.18;33.88;;;;;;;;;;5059824;28;20051;-78
2023/04/18 05:28:09;;;;;;;73.72;33.50;;;;;;;;;;5060693;28;20067;-81
2023/04/18 05:30:34;;;;;;;89.07;36.67;;;;;;;;;;5058406;28;20045;-79
2023/04/18 05:33:00;;;;;;;80.88;36.10;;;;;;;;;;5063693;28;20086;-81
2023/04/18 05:35:26;;;;;;;82.88;35.38;;;;;;;;;;5062308;28;20495;-80
2023/04/18 05:38:29;;;;;;;81.32;35.28;;;;;;;;;;5065030;28;20071;-80
2023/04/18 05:40:55;;;;;;;75.22;32.17;;;;;;;;;;5050988;28;20044;-80
2023/04/18 05:43:21;;;;;;;74.07;33.53;;;;;;;;;;5063743;28;20040;-78
2023/04/18 05:45:47;;;;;;;67.70;32.20;;;;;;;;;;5060027;28;20043;-79
2023/04/18 05:48:12;;;;;;;77.13;33.92;;;;;;;;;;5061521;28;20097;-79
2023/04/18 05:50:38;;;;;;;83.32;33.15;;;;;;;;;;5038566;28;20760;-79
2023/04/18 05:53:04;;;;;;;79.72;35.00;;;;;;;;;;5022345;28;20047;-79
2023/04/18 05:55:29;;;;;;;78.45;35.65;;;;;;;;;;5061925;28;20489;-79
2023/04/18 05:58:24;;;;;;;75.35;33.65;;;;;;;;;;5057167;28;20029;-79
2023/04/18 06:00:51;;;;;;;75.93;33.63;;;;;;;;;;5025138;28;20058;-80
2023/04/18 06:03:22;;;;;;;71.63;33.97;;;;;;;;;;5044436;28;20025;-80
2023/04/18 06:05:52;;;;;;;81.18;33.50;;;;;;;;;;5057454;28;20094;-78
2023/04/18 06:08:19;;;;;;;81.22;35.65;;;;;;;;;;5038505;28;20053;-79
2023/04/18 06:10:51;;;;;;;94.03;38.55;;;;;;;;;;5036465;28;20132;-80
2023/04/18 06:13:18;;;;;;;84.00;37.47;;;;;;;;;;5036917;28;20037;-80
2023/04/18 06:15:44;;;;;;;91.70;42.20;;;;;;;;;;5047445;28;20474;-81
2023/04/18 06:18:10;;;;;;;94.97;40.42;;;;;;;;;;5036533;28;20453;-80
2023/04/18 06:20:36;;;;;;;87.22;37.15;;;;;;;;;;5041430;28;20512;-80
2023/04/18 06:23:01;;;;;;;90.80;38.95;;;;;;;;;;5032105;28;20124;-80
2023/04/18 06:25:27;;;;;;;86.00;39.45;;;;;;;;;;5042510;28;20087;-82
2023/04/18 06:27:52;;;;;;;97.75;43.00;;;;;;;;;;5041606;28;20373;-79
2023/04/18 06:30:20;;;;;;;97.82;43.17;;;;;;;;;;5041518;28;20040;-80
2023/04/18 06:32:46;;;;;;;92.85;41.42;;;;;;;;;;5040480;28;20536;-84
2023/04/18 06:35:12;;;;;;;88.78;35.75;;;;;;;;;;5046795;28;20051;-82
2023/04/18 06:37:37;;;;;;;84.20;34.63;;;;;;;;;;5046330;28;20064;-80
2023/04/18 06:40:03;;;;;;;67.10;31.80;;;;;;;;;;5028490;28;20056;-82
2023/04/18 06:42:29;;;;;;;68.68;31.88;;;;;;;;;;5051054;28;20048;-81
2023/04/18 06:44:54;;;;;;;71.95;31.45;;;;;;;;;;5046664;28;20425;-80
2023/04/18 06:47:20;;;;;;;71.78;31.63;;;;;;;;;;5051327;28;20112;-80
2023/04/18 06:49:45;;;;;;;81.15;32.47;;;;;;;;;;5046769;28;20040;-81
2023/04/18 06:52:11;;;;;;;71.55;31.88;;;;;;;;;;5012093;28;20032;-81
2023/04/18 06:54:36;;;;;;;68.53;30.20;;;;;;;;;;5041398;28;20064;-83
2023/04/18 06:57:06;;;;;;;68.28;29.63;;;;;;;;;;5042407;28;20104;-82
2023/04/18 06:59:32;;;;;;;65.05;29.52;;;;;;;;;;5041469;28;20099;-81
2023/04/18 07:01:57;;;;;;;78.35;29.58;;;;;;;;;;5050718;28;20436;-82
2023/04/18 07:04:23;;;;;;;69.55;29.35;;;;;;;;;;5043114;28;20129;-81
2023/04/18 07:06:50;;;;;;;60.38;26.65;;;;;;;;;;5046281;28;20448;-81
2023/04/18 07:09:15;;;;;;;56.92;27.35;;;;;;;;;;5033181;28;20107;-80
2023/04/18 07:11:41;;;;;;;53.95;26.13;;;;;;;;;;5051659;28;20131;-81
2023/04/18 07:14:06;;;;;;;56.63;26.50;;;;;;;;;;5048967;28;20025;-82
2023/04/18 07:16:32;;;;;;;66.78;26.48;;;;;;;;;;5047441;28;20029;-82
2023/04/18 07:18:57;;;;;;;59.35;26.38;;;;;;;;;;5051802;28;20044;-83
2023/04/18 07:21:23;;;;;;;57.92;25.75;;;;;;;;;;5034333;28;20055;-83
2023/04/18 07:23:48;;;;;;;60.80;26.08;;;;;;;;;;5050382;28;20090;-81
2023/04/18 07:26:14;;;;;;;55.20;25.13;;;;;;;;;;5052339;28;20036;-83
2023/04/18 07:28:39;;;;;;;59.67;25.27;;;;;;;;;;5033652;28;20036;-82
2023/04/18 07:31:05;;;;;;;51.88;26.13;;;;;;;;;;5031124;28;20434;-83
2023/04/18 07:33:32;;;;;;;58.50;26.35;;;;;;;;;;5050989;28;20035;-82
2023/04/18 07:35:59;;;;;;;57.08;25.00;;;;;;;;;;5038346;28;20041;-82
2023/04/18 07:38:26;;;;;;;62.90;27.33;;;;;;;;;;5021385;28;20434;-81
2023/04/18 07:41:00;;;;;;;64.32;27.27;;;;;;;;;;5014644;28;20036;-82
2023/04/18 07:43:26;;;;;;;58.78;25.92;;;;;;;;;;5031814;28;20115;-80
2023/04/18 07:45:51;;;;;;;54.42;23.80;;;;;;;;;;5033091;28;20131;-81
2023/04/18 07:48:17;;;;;;;55.10;25.98;;;;;;;;;;5046119;28;20406;-81
2023/04/18 07:50:42;;;;;;;66.15;27.83;;;;;;;;;;5032470;28;20462;-82
2023/04/18 07:53:08;;;;;;;56.88;26.83;;;;;;;;;;5034752;28;20040;-80
2023/04/18 07:55:33;;;;;;;59.10;27.63;;;;;;;;;;5030373;28;20037;-82
2023/04/18 07:57:59;;;;;;;65.97;28.95;;;;;;;;;;5048168;28;20116;-81
2023/04/18 08:00:25;;;;;;;62.45;30.33;;;;;;;;;;5031512;28;20127;-82
2023/04/18 08:02:50;;;;;;;63.83;29.40;;;;;;;;;;5044157;28;20021;-81
2023/04/18 08:05:18;;;;;;;68.95;30.05;;;;;;;;;;5045589;28;20029;-82
2023/04/18 08:07:43;;;;;;;66.10;29.38;;;;;;;;;;5039433;28;20051;-81
2023/04/18 08:10:10;;;;;;;63.60;28.23;;;;;;;;;;5043234;28;20032;-83
2023/04/18 08:12:35;;;;;;;67.78;31.73;;;;;;;;;;5048326;28;20075;-82
2023/04/18 08:15:01;;;;;;;51.70;26.23;;;;;;;;;;5050524;28;20052;-83
2023/04/18 08:17:27;;;;;;;57.55;25.58;;;;;;;;;;5052051;28;20087;-82
2023/04/18 08:19:53;;;;;;;56.97;25.42;;;;;;;;;;5047455;28;20479;-81
2023/04/18 08:22:18;;;;;;;49.85;23.45;;;;;;;;;;5030234;28;20435;-83
2023/04/18 08:24:44;;;;;;;57.80;25.25;;;;;;;;;;4997198;28;20037;-82
2023/04/18 08:27:10;;;;;;;62.53;26.27;;;;;;;;;;5014246;28;20033;-81
2023/04/18 08:29:35;;;;;;;54.70;25.38;;;;;;;;;;5030623;28;20079;-82
2023/04/18 08:32:05;;;;;;;60.40;28.30;;;;;;;;;;5035754;28;20033;-81
2023/04/18 08:34:32;;;;;;;65.27;28.07;;;;;;;;;;5028917;28;20041;-81
2023/04/18 08:36:57;;;;;;;56.38;27.15;;;;;;;;;;5014108;28;20763;-81
2023/04/18 08:39:23;;;;;;;68.70;28.88;;;;;;;;;;5041070;28;20016;-82
2023/04/18 08:41:58;;;;;;;119.22;54.00;;;;;;;;;;4998536;28;20033;-84
2023/04/18 08:44:24;;;;;;;80.90;35.15;;;;;;;;;;5016526;28;20088;-84
2023/04/18 08:46:51;;;;;;;65.70;28.60;;;;;;;;;;5034553;28;20044;-80
2023/04/18 08:49:22;;;;;;;51.88;25.85;;;;;;;;;;5044143;28;20037;-81
2023/04/18 08:51:49;;;;;;;;;;;;;;;;;;5050289;28;20370;-83
2023/04/18 08:54:14;;;;;;;53.85;22.80;;;;;;;;;;5049591;28;20004;-84
2023/04/18 08:56:41;;;;;;;50.90;21.38;;;;;;;;;;5010874;28;20079;-83
2023/04/18 08:59:06;;;;;;;50.90;21.05;;;;;;;;;;5036438;28;20104;-83
2023/04/18 09:01:51;;;;;;;49.80;21.15;;;;;;;;;;5048839;28;20183;-81
2023/04/18 09:04:42;;;;;;;49.75;22.13;;;;;;;;;;5030080;28;20041;-83
2023/04/18 09:07:14;;;;;;;49.30;21.83;;;;;;;;;;4998498;28;20485;-83
2023/04/18 09:09:44;;;;;;;52.53;21.92;;;;;;;;;;5031235;28;20033;-83
2023/04/18 09:12:18;;;;;;;60.85;23.55;;;;;;;;;;5012710;28;20131;-83
2023/04/18 09:14:46;;;;;;;58.65;23.13;;;;;;;;;;5030232;28;20108;-84
2023/04/18 09:17:21;;;;;;;61.10;24.20;;;;;;;;;;5030582;28;20061;-83
2023/04/18 09:20:00;;;;;;;58.88;23.73;;;;;;;;;;4996575;28;20095;-82
2023/04/18 09:22:42;;;;;;;51.83;23.02;;;;;;;;;;5028278;28;20073;-81
2023/04/18 09:25:08;;;;;;;51.45;23.35;;;;;;;;;;5028366;28;20122;-83
2023/04/18 09:27:42;;;;;;;56.22;24.00;;;;;;;;;;5030009;28;20033;-83
2023/04/18 09:30:09;;;;;;;51.38;22.58;;;;;;;;;;5029419;28;20026;-83
2023/04/18 09:32:37;;;;;;;40.35;19.92;;;;;;;;;;5031257;28;20089;-82
2023/04/18 09:35:08;;;;;;;51.67;22.42;;;;;;;;;;5031975;28;20025;-85
2023/04/18 09:37:34;;;;;;;49.03;22.10;;;;;;;;;;5017292;28;20040;-81
2023/04/18 09:40:01;;;;;;;46.08;21.80;;;;;;;;;;5058024;28;20021;-82
2023/04/18 09:42:26;;;;;;;49.35;20.17;;;;;;;;;;5029133;28;20037;-82
2023/04/18 09:45:06;;;;;;;44.53;19.52;;;;;;;;;;5010258;28;20036;-82
2023/04/18 09:47:33;;;;;;;50.00;21.05;;;;;;;;;;5046417;28;20045;-81
2023/04/18 09:50:06;;;;;;;47.22;23.05;;;;;;;;;;5039549;28;20029;-81
2023/04/18 09:52:36;;;;;;;47.17;20.75;;;;;;;;;;5038225;28;20397;-81
2023/04/18 09:55:22;;;;;;;50.72;21.30;;;;;;;;;;5048030;28;20339;-83
2023/04/18 09:57:48;;;;;;;46.50;19.60;;;;;;;;;;5025525;28;20036;-82
2023/04/18 10:00:20;;;;;;;45.63;20.08;;;;;;;;;;5039981;28;20123;-82
2023/04/18 10:02:50;;;;;;;43.83;20.83;;;;;;;;;;5037984;28;20036;-82
2023/04/18 10:05:15;;;;;;;55.28;20.35;;;;;;;;;;5048831;28;20055;-83
2023/04/18 10:07:46;;;;;;;45.22;20.33;;;;;;;;;;5063016;28;20082;-81
2023/04/18 10:10:12;;;;;;;48.50;21.00;;;;;;;;;;5052291;28;20751;-82
2023/04/18 10:12:39;;;;;;;49.05;21.00;;;;;;;;;;5036062;28;20501;-81
2023/04/18 10:15:05;;;;;;;52.17;21.58;;;;;;;;;;5038859;28;20450;-82
2023/04/18 10:17:49;;;;;;;51.10;21.92;;;;;;;;;;5019383;28;20040;-81
2023/04/18 10:20:16;;;;;;;49.65;22.33;;;;;;;;;;5062165;28;20033;-82
2023/04/18 10:22:43;;;;;;;52.70;22.13;;;;;;;;;;5023970;28;20028;-81
2023/04/18 10:25:10;;;;;;;50.25;21.98;;;;;;;;;;5020962;28;20025;-84
2023/04/18 10:27:47;;;;;;;53.25;24.23;;;;;;;;;;5036514;28;20029;-80
2023/04/18 10:30:14;;;;;;;53.40;23.30;;;;;;;;;;5052522;28;20355;-82
2023/04/18 10:32:39;;;;;;;63.90;26.63;;;;;;;;;;5031087;28;20044;-81
2023/04/18 10:35:08;;;;;;;53.72;24.95;;;;;;;;;;5035267;28;20440;-81
2023/04/18 10:37:34;;;;;;;63.27;27.53;;;;;;;;;;5047571;28;20040;-82
2023/04/18 10:40:04;;;;;;;60.10;27.52;;;;;;;;;;5035203;28;20651;-81
2023/04/18 10:42:52;;;;;;;57.67;26.92;;;;;;;;;;5039374;28;20120;-79
2023/04/18 10:45:19;;;;;;;57.03;27.65;;;;;;;;;;5074476;28;20052;-81
2023/04/18 10:47:44;;;;;;;57.13;28.77;;;;;;;;;;5061595;28;20047;-81
2023/04/18 10:50:10;;;;;;;66.90;29.40;;;;;;;;;;5059360;28;20016;-81
2023/04/18 10:52:36;;;;;;;62.97;29.23;;;;;;;;;;5025854;28;20032;-81
2023/04/18 10:55:05;;;;;;;61.63;30.38;;;;;;;;;;5041713;28;20021;-81
2023/04/18 10:57:47;;;;;;;64.72;29.42;;;;;;;;;;5057681;28;20392;-81
2023/04/18 11:00:14;;;;;;;61.65;25.95;;;;;;;;;;5042094;28;20017;-80
2023/04/18 11:02:47;;;;;;;72.57;27.92;;;;;;;;;;5054999;28;20020;-83
2023/04/18 11:05:17;;;;;;;52.00;24.15;;;;;;;;;;5059086;28;20465;-82
2023/04/18 11:07:47;;;;;;;42.47;22.20;;;;;;;;;;5026834;28;20131;-81
2023/04/18 11:10:15;;;;;;;42.47;21.35;;;;;;;;;;5045707;28;20023;-81
2023/04/18 11:12:41;;;;;;;51.03;23.42;;;;;;;;;;5062727;28;20032;-82
2023/04/18 11:15:14;;;;;;;61.83;22.25;;;;;;;;;;5062795;28;20027;-81
2023/04/18 11:17:40;;;;;;;48.80;21.88;;;;;;;;;;5042387;28;21010;-81
2023/04/18 11:20:13;;;;;;;48.80;23.15;;;;;;;;;;5024568;28;20033;-81
2023/04/18 11:22:46;;;;;;;51.05;22.48;;;;;;;;;;5039624;28;20043;-81
2023/04/18 11:25:13;;;;;;;52.97;21.35;;;;;;;;;;5060320;28;20033;-81
2023/04/18 11:27:46;;;;;;;42.92;20.73;;;;;;;;;;5043859;28;20449;-80
2023/04/18 11:30:12;;;;;;;50.65;24.05;;;;;;;;;;5028246;28;20038;-82
2023/04/18 11:32:37;;;;;;;63.80;26.80;;;;;;;;;;5043373;28;20082;-82
2023/04/18 11:35:03;;;;;;;49.95;24.27;;;;;;;;;;5040846;28;20037;-79
2023/04/18 11:37:29;;;;;;;50.03;23.63;;;;;;;;;;5037058;28;20033;-81
2023/04/18 11:39:54;;;;;;;54.65;24.85;;;;;;;;;;5052576;28;20025;-81
2023/04/18 11:42:25;;;;;;;55.83;25.92;;;;;;;;;;5040961;28;20064;-81
2023/04/18 11:44:50;;;;;;;;;;;;;;;;;;5004329;28;20021;-80
2023/04/18 11:47:27;;;;;;;67.03;26.55;;;;;;;;;;5036899;28;19912;-79
2023/04/18 11:49:59;;;;;;;63.97;29.13;;;;;;;;;;5022721;28;20189;-78
2023/04/18 11:52:27;;;;;;;75.18;30.15;;;;;;;;;;5048776;28;20025;-81
2023/04/18 11:54:56;;;;;;;71.25;30.23;;;;;;;;;;5017244;28;20037;-82
2023/04/18 11:57:26;;;;;;;57.53;24.23;;;;;;;;;;5040965;28;20028;-81
2023/04/18 11:59:53;;;;;;;46.80;24.35;;;;;;;;;;5041665;28;20036;-81
2023/04/18 12:02:19;;;;;;;47.80;22.83;;;;;;;;;;5054606;28;20591;-82
2023/04/18 12:04:57;;;;;;;47.35;22.33;;;;;;;;;;5045662;28;20033;-81
2023/04/18 12:07:40;;;;;;;61.20;26.63;;;;;;;;;;5023303;28;20425;-81
2023/04/18 12:10:07;;;;;;;66.25;28.30;;;;;;;;;;5021426;28;20087;-82
2023/04/18 12:12:33;;;;;;;55.95;25.10;;;;;;;;;;5020103;28;20449;-81
2023/04/18 12:15:03;;;;;;;52.42;23.45;;;;;;;;;;5031825;28;20024;-81
2023/04/18 12:17:29;;;;;;;48.05;21.73;;;;;;;;;;5042034;28;20522;-81
2023/04/18 12:19:54;;;;;;;50.45;22.45;;;;;;;;;;5004827;28;20033;-81
2023/04/18 12:22:36;;;;;;;51.22;21.88;;;;;;;;;;5020010;28;20123;-81
2023/04/18 12:25:21;;;;;;;47.15;21.50;;;;;;;;;;5019565;28;20140;-82
2023/04/18 12:28:00;;;;;;;50.97;21.70;;;;;;;;;;5020108;28;20036;-81
2023/04/18 12:30:29;;;;;;;49.50;22.92;;;;;;;;;;5020481;28;20036;-80
2023/04/18 12:33:00;;;;;;;52.10;22.10;;;;;;;;;;5005506;28;20032;-80
2023/04/18 12:35:25;;;;;;;;;;;;;;;;;;5006210;28;20032;-82
2023/04/18 12:37:52;;;;;;;48.13;20.98;;;;;;;;;;5021870;28;19913;-81
2023/04/18 12:40:18;;;;;;;45.20;20.58;;;;;;;;;;5004276;28;20028;-81
2023/04/18 12:45:28;;;;;;;47.95;20.75;;;;;;;;;;5025668;28;20112;-82
2023/04/18 12:47:55;;;;;;;50.03;22.33;;;;;;;;;;5004244;28;20157;-82
2023/04/18 12:50:22;;;;;;;44.20;20.80;;;;;;;;;;5004954;28;20032;-81
2023/04/18 12:52:48;;;;;;;49.90;21.30;;;;;;;;;;5053912;28;20032;-82
2023/04/18 12:55:13;;;;;;;46.67;20.42;;;;;;;;;;5035758;28;20029;-82
2023/04/18 12:57:40;;;;;;;43.90;21.40;;;;;;;;;;5018814;28;20025;-81
2023/04/18 13:00:09;;;;;;;50.58;20.88;;;;;;;;;;5018658;28;21038;-81
2023/04/18 13:02:39;;;;;;;50.70;20.73;;;;;;;;;;5033243;28;20025;-81
2023/04/18 13:05:09;;;;;;;47.05;20.45;;;;;;;;;;5021796;28;20364;-82
2023/04/18 13:07:36;;;;;;;48.33;20.87;;;;;;;;;;5035237;28;20048;-83
2023/04/18 13:10:02;;;;;;;43.25;19.13;;;;;;;;;;5022076;28;20370;-80
2023/04/18 13:12:29;;;;;;;49.40;19.50;;;;;;;;;;5023236;28;20115;-79
2023/04/18 13:14:55;;;;;;;44.53;18.85;;;;;;;;;;5041427;28;20028;-81
2023/04/18 13:17:20;;;;;;;44.22;19.85;;;;;;;;;;5041411;28;20039;-82
2023/04/18 13:19:46;;;;;;;39.95;19.67;;;;;;;;;;5057160;28;20028;-83
2023/04/18 13:24:55;;;;;;;41.03;19.40;;;;;;;;;;5059287;28;20039;-81
2023/04/18 13:27:20;;;;;;;41.28;20.23;;;;;;;;;;5055890;28;20122;-80
2023/04/18 13:29:46;;;;;;;42.05;19.15;;;;;;;;;;5055504;28;20123;-81
2023/04/18 13:32:12;;;;;;;42.13;20.20;;;;;;;;;;5055545;28;20083;-81
2023/04/18 13:34:40;;;;;;;47.50;20.02;;;;;;;;;;5055743;28;20021;-81
2023/04/18 13:37:05;;;;;;;39.80;19.30;;;;;;;;;;5040240;28;20112;-80
2023/04/18 13:39:31;;;;;;;45.15;19.30;;;;;;;;;;5075420;28;20088;-84
2023/04/18 13:41:57;;;;;;;44.78;19.35;;;;;;;;;;5040063;28;20021;-82
2023/04/18 13:44:23;;;;;;;49.47;20.45;;;;;;;;;;5040389;28;20024;-82
2023/04/18 13:46:50;;;;;;;48.53;20.40;;;;;;;;;;5057243;28;20029;-82
2023/04/18 13:49:16;;;;;;;39.35;19.30;;;;;;;;;;5055889;28;20081;-82
2023/04/18 13:51:41;;;;;;;50.10;20.35;;;;;;;;;;5073600;28;20028;-83
2023/04/18 13:54:06;;;;;;;45.90;21.00;;;;;;;;;;5039747;28;20020;-81
2023/04/18 13:56:32;;;;;;;41.60;19.80;;;;;;;;;;5057213;28;20468;-82
2023/04/18 13:58:58;;;;;;;45.10;20.65;;;;;;;;;;5073515;28;20453;-82
2023/04/18 14:01:23;;;;;;;46.38;20.27;;;;;;;;;;5039015;28;20040;-83
2023/04/18 14:03:53;;;;;;;41.30;19.40;;;;;;;;;;5073433;28;20027;-81
2023/04/18 14:06:18;;;;;;;47.87;21.57;;;;;;;;;;5038826;28;20032;-81
2023/04/18 14:08:44;;;;;;;63.28;28.08;;;;;;;;;;5071597;28;20115;-81
2023/04/18 14:11:09;;;;;;;81.13;33.20;;;;;;;;;;5022417;28;20436;-80
2023/04/18 14:13:34;;;;;;;88.97;32.30;;;;;;;;;;5055347;28;20025;-81
2023/04/18 14:16:00;;;;;;;81.97;33.78;;;;;;;;;;5038908;28;20032;-80
2023/04/18 14:18:25;;;;;;;88.55;35.80;;;;;;;;;;5055048;28;20512;-80
2023/04/18 14:20:51;;;;;;;82.30;33.88;;;;;;;;;;5039152;28;20025;-82
2023/04/18 14:23:17;;;;;;;65.20;27.45;;;;;;;;;;5055279;28;20408;-80
2023/04/18 14:25:42;;;;;;;65.93;26.13;;;;;;;;;;5055099;28;20021;-80